Time;durP1;ratioP1;P1;durP2;ratioP2;P2;SDS_P1;SDS_P2;PMS_P1;PMS_P2;Temp;Humidity;BMP_temperature;BMP_pressure;BME280_temperature;BME280_humidity;BME280_pressure;Samples;Min_cycle;Max_cycle;Signal;HPM_P1;HPM_P2
2022/03/14 00:01:42;;;;;;;8.18;3.83;;;5.20;60.20;;;;;;5046552;28;20052;-69
2022/03/14 00:04:09;;;;;;;10.07;4.13;;;5.10;60.30;;;;;;5048560;28;20048;-69
2022/03/14 00:06:43;;;;;;;6.63;3.67;;;5.00;60.30;;;;;;5042628;28;21023;-68
2022/03/14 00:09:10;;;;;;;9.05;4.15;;;5.10;60.30;;;;;;5047526;28;20149;-69
2022/03/14 00:11:38;;;;;;;9.95;4.47;;;5.10;60.30;;;;;;5043438;28;20043;-69
2022/03/14 00:14:08;;;;;;;9.35;4.43;;;5.10;60.40;;;;;;5052037;28;20551;-69
2022/03/14 00:16:39;;;;;;;10.68;4.35;;;5.00;60.30;;;;;;5056631;28;20513;-68
2022/03/14 00:19:08;;;;;;;12.10;4.38;;;5.00;60.30;;;;;;5060795;28;20072;-68
2022/03/14 00:21:39;;;;;;;9.82;5.30;;;5.00;60.50;;;;;;5050936;28;20056;-69
2022/03/14 00:24:08;;;;;;;9.10;5.10;;;5.00;60.60;;;;;;5044467;28;20103;-68
2022/03/14 00:26:35;;;;;;;9.30;4.80;;;5.00;60.50;;;;;;5044654;28;20044;-69
2022/03/14 00:29:05;;;;;;;12.85;4.47;;;4.90;60.60;;;;;;5047006;28;20044;-68
2022/03/14 00:31:33;;;;;;;12.75;5.30;;;4.90;60.60;;;;;;5040236;28;20551;-68
2022/03/14 00:34:00;;;;;;;11.95;5.20;;;5.00;60.70;;;;;;5048875;28;20060;-69
2022/03/14 00:36:29;;;;;;;8.68;4.53;;;5.00;60.80;;;;;;5043058;28;20037;-69
2022/03/14 00:38:56;;;;;;;12.82;5.07;;;5.00;60.90;;;;;;5043311;28;20041;-69
2022/03/14 00:41:24;;;;;;;12.23;4.97;;;5.00;61.00;;;;;;5039607;28;20120;-69
2022/03/14 00:43:51;;;;;;;13.90;4.57;;;5.00;60.90;;;;;;5062832;28;20052;-68
2022/03/14 00:46:19;;;;;;;10.98;4.85;;;5.00;60.70;;;;;;5046953;28;20041;-69
2022/03/14 00:48:47;;;;;;;16.23;5.30;;;5.10;60.70;;;;;;5043520;28;20051;-69
2022/03/14 00:51:14;;;;;;;13.43;5.15;;;5.00;60.70;;;;;;5045024;28;20060;-69
2022/03/14 00:53:43;;;;;;;11.40;5.65;;;5.10;60.80;;;;;;5049473;28;20060;-68
2022/03/14 00:56:10;;;;;;;13.85;5.65;;;5.10;60.80;;;;;;5044516;28;20036;-68
2022/03/14 00:58:37;;;;;;;12.07;5.00;;;5.20;60.80;;;;;;5056603;28;22019;-68
2022/03/14 01:01:05;;;;;;;9.15;5.30;;;5.10;60.60;;;;;;5045830;28;20576;-69
2022/03/14 01:03:32;;;;;;;8.73;4.68;;;5.20;60.70;;;;;;5049421;28;20040;-68
2022/03/14 01:06:00;;;;;;;11.52;5.57;;;5.20;60.70;;;;;;5043404;28;20050;-69
2022/03/14 01:08:27;;;;;;;11.07;5.40;;;5.20;60.60;;;;;;5042093;28;20067;-69
2022/03/14 01:10:55;;;;;;;10.30;4.53;;;5.20;60.60;;;;;;5048641;28;20049;-68
2022/03/14 01:13:22;;;;;;;8.70;4.43;;;5.20;60.60;;;;;;5055914;28;20045;-68
2022/03/14 01:15:49;;;;;;;11.25;5.18;;;5.20;60.60;;;;;;5048595;28;20432;-69
2022/03/14 01:18:16;;;;;;;10.43;4.78;;;5.20;60.80;;;;;;5059921;28;20070;-68
2022/03/14 01:20:43;;;;;;;10.07;4.03;;;5.20;60.70;;;;;;5054096;28;20044;-68
2022/03/14 01:23:12;;;;;;;8.90;4.95;;;5.20;60.80;;;;;;5046959;28;20123;-68
2022/03/14 01:25:39;;;;;;;11.05;4.57;;;5.20;60.60;;;;;;5048322;28;20041;-68
2022/03/14 01:28:07;;;;;;;8.85;4.28;;;5.30;60.70;;;;;;5049609;28;20057;-68
2022/03/14 01:30:35;;;;;;;9.93;3.92;;;5.20;60.70;;;;;;5039617;28;20055;-68
2022/03/14 01:33:03;;;;;;;9.98;4.30;;;5.30;60.70;;;;;;5047385;28;20517;-69
2022/03/14 01:35:30;;;;;;;10.27;5.68;;;5.30;60.70;;;;;;5046741;28;20113;-68
2022/03/14 01:37:57;;;;;;;9.88;4.15;;;5.30;60.70;;;;;;5045127;28;20052;-69
2022/03/14 01:40:25;;;;;;;11.52;4.72;;;5.30;60.80;;;;;;5045203;28;20036;-68
2022/03/14 01:42:53;;;;;;;9.10;5.00;;;5.30;60.80;;;;;;5049049;28;20127;-69
2022/03/14 01:45:21;;;;;;;10.13;4.95;;;5.30;61.00;;;;;;5045585;28;20045;-69
2022/03/14 01:47:48;;;;;;;11.57;4.82;;;5.30;61.00;;;;;;5048354;28;20045;-68
2022/03/14 01:50:16;;;;;;;7.93;4.05;;;5.40;60.90;;;;;;5050009;28;20076;-68
2022/03/14 01:52:44;;;;;;;11.45;5.15;;;5.40;61.00;;;;;;5052093;28;20044;-68
2022/03/14 01:55:13;;;;;;;10.52;4.45;;;5.40;60.90;;;;;;5064968;28;20041;-68
2022/03/14 01:57:41;;;;;;;11.68;4.72;;;5.40;61.00;;;;;;5040811;28;20049;-69
2022/03/14 02:00:11;;;;;;;13.50;5.10;;;5.40;61.10;;;;;;5046994;28;20581;-67
2022/03/14 02:02:45;;;;;;;10.70;4.90;;;5.40;61.20;;;;;;5044776;28;20503;-69
2022/03/14 02:05:14;;;;;;;12.30;5.18;;;5.40;61.30;;;;;;5041000;28;20433;-69
2022/03/14 02:07:41;;;;;;;9.30;4.72;;;5.30;61.40;;;;;;5048829;28;20114;-68
2022/03/14 02:10:09;;;;;;;9.93;4.70;;;5.30;61.50;;;;;;5048943;28;20110;-69
2022/03/14 02:12:36;;;;;;;11.02;4.95;;;5.40;61.50;;;;;;5039514;28;20063;-69
2022/03/14 02:15:04;;;;;;;8.90;4.05;;;5.40;61.50;;;;;;5042658;28;20045;-69
2022/03/14 02:17:30;;;;;;;9.50;4.32;;;5.40;61.60;;;;;;5044308;28;20046;-69
2022/03/14 02:20:01;;;;;;;11.40;4.70;;;5.40;61.80;;;;;;5048548;28;20045;-69
2022/03/14 02:22:28;;;;;;;9.82;4.63;;;5.40;62.00;;;;;;5047515;28;20263;-68
2022/03/14 02:24:55;;;;;;;9.32;5.05;;;5.30;62.00;;;;;;5051145;28;20470;-69
2022/03/14 02:27:22;;;;;;;14.88;4.78;;;5.30;62.10;;;;;;5050748;28;20049;-69
2022/03/14 02:29:49;;;;;;;10.85;4.90;;;5.30;62.10;;;;;;5045233;28;20072;-69
2022/03/14 02:32:16;;;;;;;11.77;4.25;;;5.30;61.90;;;;;;5037770;28;20096;-69
2022/03/14 02:34:43;;;;;;;9.63;5.05;;;5.40;62.10;;;;;;5041309;28;20152;-70
2022/03/14 02:37:12;;;;;;;8.27;4.22;;;5.40;62.10;;;;;;5046611;28;20072;-68
2022/03/14 02:39:39;;;;;;;11.13;4.60;;;5.30;62.20;;;;;;5044524;28;20054;-69
2022/03/14 02:42:09;;;;;;;11.48;4.32;;;5.30;62.20;;;;;;5048703;28;20052;-69
2022/03/14 02:44:40;;;;;;;12.82;4.38;;;5.30;62.10;;;;;;5051886;28;20040;-69
2022/03/14 02:47:07;;;;;;;11.38;4.65;;;5.30;62.20;;;;;;5062590;28;20585;-69
2022/03/14 02:49:34;;;;;;;9.75;4.07;;;5.30;62.30;;;;;;5056544;28;20450;-68
2022/03/14 02:52:01;;;;;;;10.95;4.90;;;5.30;62.20;;;;;;5057268;28;20537;-68
2022/03/14 02:54:29;;;;;;;11.63;4.82;;;5.20;62.50;;;;;;5058196;28;20063;-69
2022/03/14 02:56:57;;;;;;;9.82;4.30;;;5.20;62.50;;;;;;5052043;28;20037;-70
2022/03/14 02:59:24;;;;;;;8.07;4.47;;;5.20;62.60;;;;;;5055218;28;20125;-68
2022/03/14 03:01:51;;;;;;;11.40;5.15;;;5.20;62.60;;;;;;5047085;28;20167;-68
2022/03/14 03:04:18;;;;;;;12.40;4.70;;;5.20;62.50;;;;;;5055137;28;20036;-69
2022/03/14 03:06:45;;;;;;;11.60;5.13;;;5.20;62.70;;;;;;5043978;28;20041;-69
2022/03/14 03:09:13;;;;;;;8.15;3.75;;;5.20;62.80;;;;;;5050736;28;20041;-69
2022/03/14 03:11:41;;;;;;;11.32;5.15;;;5.30;62.70;;;;;;5057364;28;20041;-69
2022/03/14 03:14:09;;;;;;;11.45;4.60;;;5.20;62.50;;;;;;5055511;28;20044;-69
2022/03/14 03:16:36;;;;;;;11.52;4.97;;;5.30;62.50;;;;;;5050534;28;20040;-68
2022/03/14 03:19:04;;;;;;;11.20;4.97;;;5.30;62.50;;;;;;5054046;28;20211;-69
2022/03/14 03:21:34;;;;;;;9.80;4.90;;;5.20;62.40;;;;;;5056547;28;20111;-70
2022/03/14 03:24:01;;;;;;;10.18;4.72;;;5.20;62.70;;;;;;5052867;28;20418;-69
2022/03/14 03:26:28;;;;;;;8.98;5.05;;;5.20;62.90;;;;;;5053522;28;20041;-70
2022/03/14 03:28:56;;;;;;;11.20;5.38;;;5.20;63.10;;;;;;5056222;28;20044;-69
2022/03/14 03:31:23;;;;;;;10.18;4.82;;;5.20;63.30;;;;;;5048083;28;20045;-69
2022/03/14 03:33:51;;;;;;;8.00;3.90;;;5.20;63.20;;;;;;5054164;28;20457;-69
2022/03/14 03:36:18;;;;;;;11.63;4.68;;;5.20;63.10;;;;;;5058305;28;20148;-69
2022/03/14 03:38:45;;;;;;;9.57;4.50;;;5.10;63.10;;;;;;5053687;28;20736;-69
2022/03/14 03:41:12;;;;;;;10.02;4.45;;;5.10;63.20;;;;;;5051264;28;20051;-68
2022/03/14 03:43:39;;;;;;;10.23;4.45;;;5.10;63.10;;;;;;5061500;28;20053;-70
2022/03/14 03:46:08;;;;;;;9.43;4.85;;;5.10;63.20;;;;;;5056463;28;20068;-69
2022/03/14 03:48:34;;;;;;;8.63;4.82;;;5.00;63.20;;;;;;5055303;28;20470;-69
2022/03/14 03:51:02;;;;;;;11.18;4.55;;;5.00;63.40;;;;;;5053756;28;20076;-69
2022/03/14 03:53:29;;;;;;;9.15;4.55;;;5.00;63.50;;;;;;5052870;28;20041;-69
2022/03/14 03:55:56;;;;;;;8.80;4.57;;;5.00;63.60;;;;;;5055982;28;20041;-69
2022/03/14 03:58:24;;;;;;;9.40;4.03;;;4.90;63.80;;;;;;5048592;28;20058;-68
2022/03/14 04:00:51;;;;;;;8.40;4.25;;;4.90;63.80;;;;;;5050730;28;20045;-68
2022/03/14 04:03:20;;;;;;;12.63;4.95;;;5.00;63.80;;;;;;5055933;28;20090;-69
2022/03/14 04:05:47;;;;;;;11.13;4.03;;;5.00;63.70;;;;;;5046577;28;20045;-69
2022/03/14 04:08:14;;;;;;;10.55;4.40;;;5.00;63.80;;;;;;5050917;28;20489;-69
2022/03/14 04:10:43;;;;;;;13.05;5.20;;;5.00;63.80;;;;;;5061305;28;20049;-69
2022/03/14 04:13:10;;;;;;;10.45;4.53;;;5.00;64.10;;;;;;5060505;28;20133;-70
2022/03/14 04:15:41;;;;;;;8.93;4.07;;;5.00;64.20;;;;;;5047736;28;20109;-68
2022/03/14 04:18:08;;;;;;;7.38;3.88;;;5.00;64.10;;;;;;5045392;28;20048;-69
2022/03/14 04:20:37;;;;;;;9.32;4.28;;;5.00;64.40;;;;;;5050362;28;20106;-69
2022/03/14 04:23:04;;;;;;;8.10;4.32;;;5.00;64.50;;;;;;5041143;28;20709;-68
2022/03/14 04:25:31;;;;;;;8.10;3.75;;;5.00;64.60;;;;;;5041995;28;20036;-68
2022/03/14 04:27:58;;;;;;;9.73;4.13;;;5.00;64.60;;;;;;5057349;28;20040;-69
2022/03/14 04:30:25;;;;;;;9.07;4.93;;;5.00;64.70;;;;;;5063002;28;20045;-69
2022/03/14 04:32:52;;;;;;;9.40;4.65;;;5.00;64.80;;;;;;5051151;28;20086;-68
2022/03/14 04:35:19;;;;;;;7.55;4.10;;;5.00;64.80;;;;;;5060909;28;20041;-69
2022/03/14 04:37:47;;;;;;;12.55;4.78;;;5.00;64.80;;;;;;5062255;28;20494;-69
2022/03/14 04:40:14;;;;;;;12.23;4.90;;;5.00;64.70;;;;;;5062967;28;20049;-69
2022/03/14 04:42:41;;;;;;;8.05;3.83;;;5.00;64.80;;;;;;5062129;28;20057;-69
2022/03/14 04:45:09;;;;;;;8.40;4.32;;;5.00;64.70;;;;;;5060303;28;20040;-68
2022/03/14 04:47:36;;;;;;;11.32;4.85;;;5.00;64.60;;;;;;5060308;28;20045;-68
2022/03/14 04:50:05;;;;;;;11.48;4.50;;;5.00;64.70;;;;;;5057746;28;20482;-68
2022/03/14 04:52:35;;;;;;;10.40;4.75;;;5.10;64.50;;;;;;5056653;28;20093;-68
2022/03/14 04:55:03;;;;;;;12.02;4.80;;;5.10;64.40;;;;;;5067474;28;20112;-68
2022/03/14 04:57:30;;;;;;;11.18;5.13;;;5.10;64.40;;;;;;5061140;28;20059;-67
2022/03/14 04:59:57;;;;;;;8.93;4.00;;;5.10;64.30;;;;;;5053523;28;20041;-67
2022/03/14 05:02:24;;;;;;;9.02;4.55;;;5.10;64.70;;;;;;5050874;28;20053;-69
2022/03/14 05:04:52;;;;;;;9.55;4.47;;;5.10;64.80;;;;;;5061168;28;20049;-69
2022/03/14 05:07:19;;;;;;;8.43;4.90;;;5.10;65.00;;;;;;5061047;28;20045;-69
2022/03/14 05:09:46;;;;;;;9.40;4.38;;;5.10;64.80;;;;;;5056517;28;20076;-69
2022/03/14 05:12:15;;;;;;;11.15;4.40;;;5.10;64.70;;;;;;5061727;28;20135;-69
2022/03/14 05:14:42;;;;;;;8.35;4.10;;;5.20;64.60;;;;;;5054621;28;20036;-69
2022/03/14 05:17:10;;;;;;;9.65;4.47;;;5.20;64.50;;;;;;5057747;28;20803;-68
2022/03/14 05:19:39;;;;;;;12.20;4.20;;;5.20;64.40;;;;;;5056915;28;20092;-68
2022/03/14 05:22:06;;;;;;;13.07;5.20;;;5.20;64.60;;;;;;5062304;28;20045;-68
2022/03/14 05:24:33;;;;;;;8.55;4.57;;;5.20;64.70;;;;;;5055708;28;20044;-70
2022/03/14 05:27:00;;;;;;;8.00;4.22;;;5.20;64.90;;;;;;5059116;28;20566;-67
2022/03/14 05:29:28;;;;;;;11.68;5.50;;;5.20;65.20;;;;;;5050167;28;20119;-69
2022/03/14 05:31:56;;;;;;;9.85;4.15;;;5.20;65.70;;;;;;5046002;28;20525;-69
2022/03/14 05:34:23;;;;;;;9.68;4.45;;;5.20;66.30;;;;;;5049289;28;20360;-69
2022/03/14 05:36:50;;;;;;;9.73;4.80;;;5.20;66.70;;;;;;5046231;28;20044;-68
2022/03/14 05:39:17;;;;;;;11.75;5.43;;;5.20;67.10;;;;;;5044121;28;20161;-69
2022/03/14 05:41:44;;;;;;;12.82;4.85;;;5.20;67.20;;;;;;5044385;28;20434;-69
2022/03/14 05:44:11;;;;;;;10.10;5.00;;;5.20;67.50;;;;;;5057933;28;20037;-68
2022/03/14 05:46:40;;;;;;;13.55;5.03;;;5.20;68.00;;;;;;5056136;28;20045;-68
2022/03/14 05:49:07;;;;;;;11.38;5.13;;;5.20;68.30;;;;;;5055606;28;20043;-69
2022/03/14 05:51:36;;;;;;;8.80;4.57;;;5.20;69.00;;;;;;5054102;28;20040;-69
2022/03/14 05:54:04;;;;;;;11.75;5.00;;;5.20;69.20;;;;;;5052982;28;20119;-69
2022/03/14 05:56:31;;;;;;;9.90;4.50;;;5.20;69.60;;;;;;5053954;28;20044;-66
2022/03/14 05:58:58;;;;;;;11.35;4.65;;;5.20;70.00;;;;;;5049675;28;20041;-69
2022/03/14 06:01:25;;;;;;;9.85;5.13;;;5.20;70.70;;;;;;5039394;28;20055;-70
2022/03/14 06:03:53;;;;;;;10.30;5.05;;;5.20;71.30;;;;;;5045653;28;20182;-68
2022/03/14 06:06:20;;;;;;;9.18;4.70;;;5.20;71.60;;;;;;5061206;28;20052;-68
2022/03/14 06:08:47;;;;;;;9.57;4.15;;;5.20;72.10;;;;;;5059426;28;20047;-67
2022/03/14 06:11:15;;;;;;;7.57;3.88;;;5.20;72.60;;;;;;5054803;28;20998;-68
2022/03/14 06:13:43;;;;;;;9.93;4.35;;;5.20;73.20;;;;;;5050017;28;20141;-68
2022/03/14 06:16:10;;;;;;;10.18;4.70;;;5.20;73.90;;;;;;5052833;28;20067;-68
2022/03/14 06:18:38;;;;;;;10.85;4.85;;;5.20;73.70;;;;;;5048715;28;20062;-66
2022/03/14 06:21:06;;;;;;;9.90;4.63;;;5.20;74.00;;;;;;5043871;28;20053;-68
2022/03/14 06:23:33;;;;;;;11.07;5.13;;;5.20;74.00;;;;;;5051093;28;20094;-68
2022/03/14 06:26:00;;;;;;;10.18;4.72;;;5.20;73.90;;;;;;5047022;28;20074;-68
2022/03/14 06:28:27;;;;;;;10.15;4.75;;;5.20;74.10;;;;;;5066868;28;20055;-67
2022/03/14 06:30:55;;;;;;;11.77;5.25;;;5.20;74.10;;;;;;5045312;28;20498;-67
2022/03/14 06:33:22;;;;;;;9.43;5.40;;;5.20;74.30;;;;;;5044062;28;20144;-68
2022/03/14 06:35:50;;;;;;;9.18;5.40;;;5.20;74.40;;;;;;5040968;28;20160;-69
2022/03/14 06:38:19;;;;;;;10.75;5.20;;;5.20;74.50;;;;;;5047674;28;20655;-67
2022/03/14 06:40:47;;;;;;;10.95;5.10;;;5.20;74.50;;;;;;5052042;28;20103;-67
2022/03/14 06:43:15;;;;;;;10.85;5.25;;;5.20;74.60;;;;;;5025860;28;20098;-68
2022/03/14 06:45:45;;;;;;;14.50;5.70;;;5.30;74.70;;;;;;5029510;28;20051;-67
2022/03/14 06:48:13;;;;;;;13.55;5.43;;;5.30;74.80;;;;;;5026469;28;20053;-68
2022/03/14 06:50:41;;;;;;;9.70;5.47;;;5.30;75.00;;;;;;5030302;28;20246;-68
2022/03/14 06:53:08;;;;;;;12.50;5.15;;;5.30;75.50;;;;;;5027894;28;20047;-68
2022/03/14 06:55:37;;;;;;;13.02;5.28;;;5.40;75.60;;;;;;5025202;28;20041;-68
2022/03/14 06:58:04;;;;;;;13.65;5.55;;;5.30;76.00;;;;;;5026603;28;20037;-67
2022/03/14 07:00:31;;;;;;;13.23;5.70;;;5.40;76.40;;;;;;5027619;28;20048;-69
2022/03/14 07:02:58;;;;;;;12.02;5.75;;;5.30;76.50;;;;;;5031040;28;20051;-69
2022/03/14 07:05:26;;;;;;;13.07;4.63;;;5.30;76.70;;;;;;5035119;28;20041;-66
2022/03/14 07:07:53;;;;;;;8.68;4.20;;;5.40;76.80;;;;;;5031877;28;20041;-68
2022/03/14 07:10:22;;;;;;;13.30;4.90;;;5.40;77.10;;;;;;5030874;28;21852;-68
2022/03/14 07:12:51;;;;;;;12.38;5.22;;;5.40;77.30;;;;;;5032664;28;20209;-69
2022/03/14 07:15:21;;;;;;;9.20;5.22;;;5.40;77.50;;;;;;5023614;28;20045;-67
2022/03/14 07:17:50;;;;;;;12.02;5.70;;;5.40;77.60;;;;;;5023727;28;20064;-67
2022/03/14 07:20:18;;;;;;;10.30;6.05;;;5.40;77.80;;;;;;5028072;28;20909;-69
2022/03/14 07:22:54;;;;;;;11.93;4.82;;;5.40;77.90;;;;;;5023783;28;20064;-69
2022/03/14 07:25:23;;;;;;;11.75;5.05;;;5.40;78.30;;;;;;5025268;28;20053;-69
2022/03/14 07:27:52;;;;;;;11.23;5.20;;;5.40;78.10;;;;;;5024908;28;20052;-68
2022/03/14 07:30:19;;;;;;;11.00;5.30;;;5.40;78.50;;;;;;5027353;28;20051;-69
2022/03/14 07:32:47;;;;;;;11.40;5.15;;;5.40;78.90;;;;;;5025393;28;20408;-69
2022/03/14 07:35:15;;;;;;;11.23;5.20;;;5.40;78.90;;;;;;5023415;28;20049;-69
2022/03/14 07:37:42;;;;;;;12.65;4.80;;;5.40;79.50;;;;;;5027213;28;20053;-68
2022/03/14 07:40:10;;;;;;;14.43;6.90;;;5.50;79.60;;;;;;5016352;28;20092;-68
2022/03/14 07:42:41;;;;;;;9.68;4.95;;;5.60;79.50;;;;;;5019059;28;20072;-69
2022/03/14 07:45:12;;;;;;;11.38;4.95;;;5.60;80.00;;;;;;5023609;28;20048;-69
2022/03/14 07:47:39;;;;;;;11.60;5.18;;;5.60;80.10;;;;;;5031673;28;20052;-69
2022/03/14 07:50:08;;;;;;;13.18;6.22;;;5.60;79.80;;;;;;5030327;28;20663;-69
2022/03/14 07:52:37;;;;;;;11.25;5.05;;;5.70;80.00;;;;;;5031545;28;20072;-69
2022/03/14 07:55:05;;;;;;;12.45;5.70;;;5.70;80.30;;;;;;5029672;28;20046;-69
2022/03/14 07:57:32;;;;;;;16.45;5.78;;;5.70;80.80;;;;;;5029506;28;20044;-69
2022/03/14 08:00:00;;;;;;;13.95;5.45;;;5.70;80.70;;;;;;5030089;28;20037;-69
2022/03/14 08:02:29;;;;;;;15.80;5.43;;;5.80;81.20;;;;;;5028222;28;20490;-69
2022/03/14 08:04:57;;;;;;;11.45;4.88;;;5.80;80.90;;;;;;5028329;28;20061;-69
2022/03/14 08:07:24;;;;;;;13.82;5.30;;;5.90;80.50;;;;;;5029359;28;20468;-68
2022/03/14 08:09:51;;;;;;;9.77;4.80;;;5.90;80.70;;;;;;5026599;28;20088;-69
2022/03/14 08:12:18;;;;;;;10.20;3.88;;;6.00;80.80;;;;;;5025939;28;20045;-68
2022/03/14 08:14:46;;;;;;;9.73;4.35;;;6.10;80.60;;;;;;5027119;28;20045;-67
2022/03/14 08:17:13;;;;;;;8.77;4.53;;;6.10;80.50;;;;;;5026979;28;20079;-69
2022/03/14 08:19:41;;;;;;;9.38;4.28;;;6.20;81.10;;;;;;5024272;28;20077;-69
2022/03/14 08:22:08;;;;;;;6.75;3.35;;;6.20;81.20;;;;;;5026201;28;20053;-69
2022/03/14 08:24:35;;;;;;;7.63;3.33;;;6.20;81.70;;;;;;5025654;28;20053;-68
2022/03/14 08:27:02;;;;;;;8.65;3.25;;;6.30;81.60;;;;;;5025807;28;20411;-69
2022/03/14 08:29:30;;;;;;;9.57;3.60;;;6.40;81.40;;;;;;5026827;28;20045;-68
2022/03/14 08:31:59;;;;;;;11.02;3.13;;;6.40;80.90;;;;;;5025042;28;20053;-68
2022/03/14 08:34:26;;;;;;;6.53;3.58;;;6.50;81.20;;;;;;5044134;28;20098;-69
2022/03/14 08:36:54;;;;;;;7.53;2.88;;;6.60;81.30;;;;;;5045480;28;20051;-68
2022/03/14 08:39:21;;;;;;;6.13;3.58;;;6.60;82.30;;;;;;5040248;28;20045;-69
2022/03/14 08:41:49;;;;;;;7.63;3.15;;;6.70;82.10;;;;;;5031938;28;20059;-69
2022/03/14 08:44:16;;;;;;;6.53;3.13;;;6.70;82.30;;;;;;5027786;28;20044;-68
2022/03/14 08:46:43;;;;;;;5.70;2.40;;;6.70;82.10;;;;;;5027330;28;20082;-69
2022/03/14 08:49:10;;;;;;;4.20;1.77;;;6.80;81.80;;;;;;5028923;28;20049;-69
2022/03/14 08:51:39;;;;;;;4.80;2.42;;;6.80;82.30;;;;;;5024421;28;20042;-69
2022/03/14 08:54:08;;;;;;;5.53;2.10;;;6.90;83.60;;;;;;5022201;28;20044;-69
2022/03/14 08:56:35;;;;;;;6.78;2.28;;;6.90;83.30;;;;;;5028261;28;20053;-68
2022/03/14 08:59:04;;;;;;;4.35;1.70;;;6.90;83.40;;;;;;5023053;28;20058;-69
2022/03/14 09:01:32;;;;;;;5.00;2.10;;;7.00;84.50;;;;;;5024684;28;20033;-69
2022/03/14 09:04:01;;;;;;;5.40;1.83;;;7.10;84.40;;;;;;5024053;28;20066;-68
2022/03/14 09:06:30;;;;;;;9.05;2.05;;;7.20;85.10;;;;;;5026148;28;20048;-68
2022/03/14 09:08:57;;;;;;;8.13;2.67;;;7.20;85.20;;;;;;5025550;28;20041;-68
2022/03/14 09:11:25;;;;;;;4.65;1.67;;;7.20;85.00;;;;;;5026934;28;20053;-68
2022/03/14 09:13:54;;;;;;;6.05;2.17;;;7.20;85.20;;;;;;5025789;28;20056;-68
2022/03/14 09:16:21;;;;;;;4.15;1.58;;;7.20;85.30;;;;;;5026580;28;20043;-69
2022/03/14 09:18:48;;;;;;;4.07;1.40;;;7.20;85.20;;;;;;5028604;28;20044;-69
2022/03/14 09:21:15;;;;;;;4.78;1.70;;;7.30;85.20;;;;;;5029654;28;20107;-68
2022/03/14 09:23:42;;;;;;;4.68;1.75;;;7.30;85.30;;;;;;5028178;28;20537;-69
2022/03/14 09:26:10;;;;;;;3.97;1.73;;;7.30;85.70;;;;;;5030236;28;20124;-68
2022/03/14 09:28:44;;;;;;;6.00;1.67;;;7.40;85.60;;;;;;5025697;28;20140;-68
2022/03/14 09:31:11;;;;;;;5.57;1.77;;;7.40;85.80;;;;;;5029794;28;20506;-68
2022/03/14 09:33:38;;;;;;;4.53;2.42;;;7.40;86.10;;;;;;5029491;28;20654;-69
2022/03/14 09:36:06;;;;;;;3.40;1.45;;;7.40;85.90;;;;;;5028679;28;20040;-69
2022/03/14 09:38:33;;;;;;;2.90;1.20;;;7.40;86.00;;;;;;5025085;28;20563;-69
2022/03/14 09:41:03;;;;;;;3.88;1.45;;;7.40;86.10;;;;;;5026871;28;20575;-69
2022/03/14 09:43:32;;;;;;;4.18;1.67;;;7.50;86.00;;;;;;5026499;28;20097;-68
2022/03/14 09:46:01;;;;;;;4.28;1.90;;;7.50;86.10;;;;;;5027155;28;20041;-68
2022/03/14 09:48:31;;;;;;;5.95;1.80;;;7.50;86.20;;;;;;5028133;28;20052;-67
2022/03/14 09:51:00;;;;;;;4.55;1.55;;;7.60;86.40;;;;;;5028426;28;20481;-68
2022/03/14 09:53:31;;;;;;;3.92;1.45;;;7.60;86.20;;;;;;5027435;28;20160;-68
2022/03/14 09:55:58;;;;;;;5.68;1.85;;;7.60;86.50;;;;;;5031174;28;20076;-68
2022/03/14 09:58:26;;;;;;;5.70;2.20;;;7.60;86.50;;;;;;5032555;28;20128;-68
2022/03/14 10:00:53;;;;;;;4.43;1.40;;;7.70;86.30;;;;;;5030951;28;20052;-68
2022/03/14 10:03:23;;;;;;;4.47;1.90;;;7.70;86.50;;;;;;5027358;28;20059;-68
2022/03/14 10:05:51;;;;;;;6.50;2.03;;;7.70;86.60;;;;;;5030169;28;20055;-69
2022/03/14 10:08:18;;;;;;;4.45;1.80;;;7.70;86.30;;;;;;5028752;28;20041;-68
2022/03/14 10:10:45;;;;;;;5.47;1.80;;;7.70;86.10;;;;;;5025068;28;20040;-69
2022/03/14 10:13:14;;;;;;;5.07;1.52;;;7.70;86.50;;;;;;5026878;28;20043;-69
2022/03/14 10:15:42;;;;;;;8.20;2.03;;;7.80;86.50;;;;;;5025752;28;20132;-68
2022/03/14 10:18:13;;;;;;;8.25;1.90;;;7.90;86.50;;;;;;5028937;28;20048;-69
2022/03/14 10:20:56;;;;;;;4.30;1.77;;;7.90;86.60;;;;;;5027005;28;20689;-69
2022/03/14 10:23:33;;;;;;;6.18;1.55;;;7.90;86.70;;;;;;5027866;28;20060;-69
2022/03/14 10:26:01;;;;;;;5.75;1.90;;;8.00;86.70;;;;;;5024724;28;20064;-68
2022/03/14 10:28:32;;;;;;;6.32;2.03;;;8.00;86.50;;;;;;5026176;28;20048;-68
2022/03/14 10:31:02;;;;;;;8.15;1.38;;;8.00;86.40;;;;;;5028081;28;21184;-68
2022/03/14 10:33:31;;;;;;;5.77;2.23;;;8.10;86.30;;;;;;5028946;28;20053;-69
2022/03/14 10:36:01;;;;;;;6.75;1.77;;;8.10;86.30;;;;;;5027022;28;20479;-69
2022/03/14 10:38:33;;;;;;;8.23;2.58;;;8.10;86.20;;;;;;5027551;28;20053;-69
2022/03/14 10:41:14;;;;;;;8.55;2.67;;;8.20;86.30;;;;;;5027197;28;20045;-67
2022/03/14 10:43:42;;;;;;;7.53;2.63;;;8.20;86.20;;;;;;5024706;28;20085;-67
2022/03/14 10:46:09;;;;;;;5.60;2.30;;;8.30;86.20;;;;;;5024777;28;21910;-68
2022/03/14 10:48:39;;;;;;;4.15;1.88;;;8.40;86.10;;;;;;5026613;28;20139;-70
2022/03/14 10:51:10;;;;;;;6.15;2.25;;;8.40;85.60;;;;;;5026566;28;20053;-69
2022/03/14 10:53:40;;;;;;;;;;;8.50;85.40;;;;;;5026892;28;20055;-68
2022/03/14 10:56:07;;;;;;;4.82;2.00;;;8.60;85.70;;;;;;5030864;28;20019;-67
2022/03/14 10:58:35;;;;;;;5.05;2.10;;;8.60;85.50;;;;;;5025180;28;20729;-67
2022/03/14 11:01:04;;;;;;;7.25;2.25;;;8.70;85.10;;;;;;5026766;28;20056;-68
2022/03/14 11:03:33;;;;;;;4.53;1.83;;;8.70;85.30;;;;;;5025596;28;20041;-69
2022/03/14 11:06:02;;;;;;;9.43;2.60;;;8.70;85.40;;;;;;5029643;28;20055;-68
2022/03/14 11:08:36;;;;;;;7.30;1.40;;;8.70;85.30;;;;;;5029650;28;20045;-67
2022/03/14 11:11:05;;;;;;;4.03;1.63;;;8.80;84.80;;;;;;5030788;28;20539;-67
2022/03/14 11:13:32;;;;;;;7.72;2.20;;;8.90;84.60;;;;;;5036220;28;20156;-67
2022/03/14 11:15:59;;;;;;;6.43;1.98;;;9.00;84.20;;;;;;5035777;28;22002;-68
2022/03/14 11:18:27;;;;;;;6.47;2.00;;;9.10;85.00;;;;;;5034446;28;20045;-68
2022/03/14 11:20:57;;;;;;;7.15;2.08;;;9.10;84.90;;;;;;5034585;28;20049;-68
2022/03/14 11:23:25;;;;;;;4.57;1.80;;;9.20;84.60;;;;;;5026032;28;20041;-68
2022/03/14 11:25:55;;;;;;;3.97;1.63;;;9.20;84.40;;;;;;5024905;28;20123;-68
2022/03/14 11:28:24;;;;;;;6.60;1.92;;;9.20;84.20;;;;;;5026441;28;21919;-67
2022/03/14 11:30:58;;;;;;;7.75;2.30;;;9.30;84.00;;;;;;5030459;28;20052;-68
2022/03/14 11:33:25;;;;;;;6.20;1.65;;;9.40;83.90;;;;;;5025817;28;20076;-69
2022/03/14 11:35:52;;;;;;;8.43;2.28;;;9.40;84.00;;;;;;5027154;28;20049;-68
2022/03/14 11:38:20;;;;;;;5.38;1.70;;;9.40;83.60;;;;;;5025890;28;20045;-68
2022/03/14 11:40:47;;;;;;;5.90;2.00;;;9.40;83.50;;;;;;5029293;28;20045;-69
2022/03/14 11:43:17;;;;;;;6.85;2.15;;;9.40;83.40;;;;;;5023019;28;20115;-69
2022/03/14 11:45:44;;;;;;;5.50;2.00;;;9.30;83.20;;;;;;5029444;28;20045;-68
2022/03/14 11:48:11;;;;;;;5.68;2.10;;;9.30;83.70;;;;;;5032267;28;20072;-68
2022/03/14 11:50:43;;;;;;;5.28;2.03;;;9.30;83.80;;;;;;5031739;28;20045;-68
2022/03/14 11:53:10;;;;;;;4.10;1.67;;;9.30;83.50;;;;;;5027264;28;20044;-68
2022/03/14 11:55:51;;;;;;;5.45;2.00;;;9.40;83.60;;;;;;5027609;28;20627;-68
2022/03/14 11:58:37;;;;;;;4.88;1.60;;;9.50;83.40;;;;;;5030852;28;20394;-68
2022/03/14 12:01:21;;;;;;;6.00;1.70;;;9.60;83.20;;;;;;5032533;28;20045;-68
2022/03/14 12:03:49;;;;;;;5.18;1.92;;;9.60;83.00;;;;;;5052036;28;20051;-68
2022/03/14 12:06:18;;;;;;;6.43;2.15;;;9.70;82.20;;;;;;5053213;28;20045;-69
2022/03/14 12:08:55;;;;;;;4.72;2.08;;;9.70;82.70;;;;;;5053120;28;20158;-67
2022/03/14 12:11:40;;;;;;;2.25;1.13;;;9.70;82.30;;;;;;5031427;28;20043;-70
2022/03/14 12:14:13;;;;;;;4.68;2.13;;;9.70;82.20;;;;;;5030307;28;20803;-68
2022/03/14 12:16:43;;;;;;;7.55;1.60;;;9.80;81.60;;;;;;5033619;28;20044;-68
2022/03/14 12:19:32;;;;;;;5.50;1.50;;;9.80;81.60;;;;;;5030584;28;20069;-69
2022/03/14 12:22:01;;;;;;;4.60;1.05;;;9.80;81.10;;;;;;5028813;28;20061;-69
2022/03/14 12:24:44;;;;;;;5.72;1.52;;;9.80;81.40;;;;;;5035227;28;20134;-68
2022/03/14 12:27:17;;;;;;;4.78;1.83;;;9.80;81.10;;;;;;5030576;28;20054;-69
2022/03/14 12:29:46;;;;;;;3.45;1.27;;;9.90;81.10;;;;;;5029340;28;20048;-69
2022/03/14 12:32:26;;;;;;;3.08;1.13;;;9.90;81.00;;;;;;5027001;28;20555;-69
2022/03/14 12:34:57;;;;;;;;;;;9.80;80.60;;;;;;5027880;28;20047;-68
2022/03/14 12:37:24;;;;;;;;;;;9.90;79.90;;;;;;5027128;28;20523;-68
2022/03/14 12:39:51;;;;;;;1.92;0.68;;;9.90;79.40;;;;;;5048684;28;19920;-68
2022/03/14 12:42:23;;;;;;;3.70;0.98;;;9.80;78.90;;;;;;5041605;28;20072;-69
2022/03/14 12:45:17;;;;;;;3.65;0.98;;;9.90;79.30;;;;;;5044793;28;20052;-69
2022/03/14 12:47:52;;;;;;;1.98;0.75;;;9.90;79.50;;;;;;5026718;28;20045;-68
2022/03/14 12:50:52;;;;;;;3.63;1.10;;;10.00;79.50;;;;;;5028493;28;20060;-68
2022/03/14 12:53:20;;;;;;;2.78;0.88;;;10.00;79.10;;;;;;5038688;28;20045;-69
2022/03/14 12:55:48;;;;;;;4.38;1.17;;;10.10;78.90;;;;;;5035714;28;20041;-69
2022/03/14 12:58:21;;;;;;;5.80;0.88;;;10.10;78.70;;;;;;5028503;28;20049;-69
2022/03/14 13:00:50;;;;;;;2.78;0.90;;;10.10;78.40;;;;;;5028914;28;20049;-68